KSQL

San Carlos Airport

San Carlos, California, USA
METAR KSQL 250515Z AUTO 29005KT 10SM OVC042 13/09 A3008 RMK AO2
Observed Flight Rules
May-25 @ 05:15 UTC (7 minutes ago) Visual Flight Rules
Wind Visibility Clouds
290° at 5 knots 10 miles
  • Overcast at 4,200' AGL
Temperatures Readings
Current 13°C / 55°F
Dewpoint 9°C / 48°F
Humidity 77%
Altimeter 30.08" Hg
Pressure 1019 hPa
Elevation 1
METAR KSQL 250515Z AUTO 29005KT 10SM OVC042 13/09 A3008 RMK AO2
Observed Flight Rules
May-25 @ 05:15 UTC
(7 minutes ago)
VFR
Wind Visibility
290° at 5 knots 10 miles
Clouds
  • Overcast at 4,200' AGL
Temperature Dewpoint
13°C / 55°F 9°C / 48°F
Humidity Altimeter Pressure
77% 30.08" Hg 1019 hPa